Time;durP1;ratioP1;P1;durP2;ratioP2;P2;SDS_P1;SDS_P2;PMS_P1;PMS_P2;Temp;Humidity;BMP_temperature;BMP_pressure;BME280_temperature;BME280_humidity;BME280_pressure;Samples;Min_cycle;Max_cycle;Signal;HPM_P1;HPM_P2
2022/03/27 00:01:46;;;;;;;7.20;7.00;;;;;;;9.71;87.47;102584.09;5129579;27;20197;-69
2022/03/27 00:04:13;;;;;;;8.43;8.07;;;;;;;9.70;87.80;102582.34;5113433;28;20220;-69
2022/03/27 00:06:39;;;;;;;8.63;7.77;;;;;;;9.69;88.10;102577.13;5114461;28;20183;-69
2022/03/27 00:09:05;;;;;;;8.40;7.70;;;;;;;9.64;88.18;102591.13;5114147;28;20654;-70
2022/03/27 00:11:32;;;;;;;9.17;7.77;;;;;;;9.64;88.45;102585.00;5115559;28;20205;-70
2022/03/27 00:14:01;;;;;;;7.23;7.03;;;;;;;9.56;89.08;102592.03;5114359;28;20295;-70
2022/03/27 00:16:28;;;;;;;9.37;8.50;;;;;;;9.57;88.92;102586.84;5132996;27;20249;-70
2022/03/27 00:18:55;;;;;;;8.73;7.93;;;;;;;9.52;89.31;102587.72;5130535;27;20199;-70
2022/03/27 00:21:22;;;;;;;9.03;8.37;;;;;;;9.54;89.53;102591.19;5135316;27;20189;-70
2022/03/27 00:23:51;;;;;;;10.00;9.03;;;;;;;9.45;89.77;102589.50;5116894;27;20224;-70
2022/03/27 00:26:17;;;;;;;8.20;7.93;;;;;;;9.38;90.08;102588.69;5135021;27;20208;-70
2022/03/27 00:28:44;;;;;;;8.33;7.87;;;;;;;9.34;90.34;102591.31;5116556;27;20215;-69
2022/03/27 00:31:12;;;;;;;8.27;7.80;;;;;;;9.27;90.75;102587.00;5115173;28;20253;-70
2022/03/27 00:33:40;;;;;;;8.17;7.97;;;;;;;9.26;91.57;102587.88;5117698;27;20699;-69
2022/03/27 00:36:09;;;;;;;9.70;9.10;;;;;;;9.24;91.85;102589.66;5132562;27;20184;-69
2022/03/27 00:38:37;;;;;;;9.13;8.33;;;;;;;9.21;91.97;102589.66;5131809;27;20196;-69
2022/03/27 00:41:04;;;;;;;8.50;7.80;;;;;;;9.15;92.18;102595.78;5114342;28;20661;-69
2022/03/27 00:43:31;;;;;;;9.93;8.43;;;;;;;9.13;92.18;102586.22;5114565;27;20217;-70
2022/03/27 00:45:58;;;;;;;8.40;8.13;;;;;;;9.02;93.19;102589.75;5113466;27;20189;-70
2022/03/27 00:48:25;;;;;;;8.90;8.23;;;;;;;9.09;93.34;102588.84;5126332;27;20193;-70
2022/03/27 00:50:53;;;;;;;8.77;8.17;;;;;;;9.00;94.12;102591.53;5126975;27;20194;-69
2022/03/27 00:53:21;;;;;;;8.83;8.53;;;;;;;8.95;94.57;102590.66;5127245;27;20534;-70
2022/03/27 00:55:51;;;;;;;9.90;9.07;;;;;;;9.03;94.81;102585.41;5131521;27;20251;-69
2022/03/27 00:58:18;;;;;;;9.30;8.60;;;;;;;8.96;94.98;102597.63;5114358;27;20205;-69
2022/03/27 01:00:55;;;;;;;10.43;9.70;;;;;;;9.04;95.27;102588.00;5122403;27;20588;-69
2022/03/27 01:03:25;;;;;;;10.03;9.47;;;;;;;8.97;95.67;102588.03;5120423;27;20252;-69
2022/03/27 01:05:53;;;;;;;9.50;9.03;;;;;;;8.93;96.00;102592.41;5129658;27;20190;-70
2022/03/27 01:11:11;;;;;;;9.03;8.53;;;;;;;8.83;97.04;102585.47;5121335;27;20190;-70
2022/03/27 01:13:42;;;;;;;10.57;9.77;;;;;;;8.82;97.00;102581.13;5113492;28;20209;-70
2022/03/27 01:16:42;;;;;;;10.40;9.60;;;;;;;8.85;97.17;102583.72;5119680;27;20185;-69
2022/03/27 01:19:11;;;;;;;10.60;9.97;;;;;;;8.87;97.37;102582.00;5101811;28;20697;-70
2022/03/27 01:21:41;;;;;;;11.00;10.30;;;;;;;8.91;97.41;102581.09;5126282;27;20644;-69
2022/03/27 01:24:09;;;;;;;10.97;10.03;;;;;;;8.79;97.76;102575.94;5118438;27;20209;-69
2022/03/27 01:26:37;;;;;;;12.50;11.17;;;;;;;8.80;98.08;102575.06;5121373;27;20194;-69
2022/03/27 01:29:05;;;;;;;12.37;11.37;;;;;;;8.77;98.47;102575.06;5113585;28;20189;-69
2022/03/27 01:31:32;;;;;;;11.80;10.80;;;;;;;8.80;98.38;102573.31;5113275;28;20231;-69
2022/03/27 01:33:59;;;;;;;13.40;11.70;;;;;;;8.83;98.02;102570.66;5117008;28;20221;-69
2022/03/27 01:36:31;;;;;;;13.00;11.80;;;;;;;8.85;98.24;102567.19;5114476;28;20251;-69
2022/03/27 01:38:57;;;;;;;12.60;11.80;;;;;;;8.85;98.79;102562.81;5115272;28;20228;-69
2022/03/27 01:41:24;;;;;;;12.03;10.70;;;;;;;8.78;99.00;102563.72;5117517;27;20646;-69
2022/03/27 01:43:50;;;;;;;12.57;11.43;;;;;;;8.81;99.15;102568.94;5118152;27;20269;-69
2022/03/27 01:46:18;;;;;;;14.17;12.97;;;;;;;8.81;99.74;102561.13;5129520;27;20650;-69
2022/03/27 01:48:45;;;;;;;14.03;12.87;;;;;;;8.83;99.89;102565.44;5137443;27;20253;-69
2022/03/27 01:51:11;;;;;;;14.20;13.03;;;;;;;8.72;99.82;102559.41;5119041;27;20242;-69
2022/03/27 01:53:39;;;;;;;14.13;12.90;;;;;;;8.68;100.00;102559.44;5117515;27;20262;-69
2022/03/27 01:56:07;;;;;;;13.83;12.67;;;;;;;8.68;100.00;102562.91;5135722;27;20209;-69
2022/03/27 01:58:38;;;;;;;12.83;11.83;;;;;;;8.59;100.00;102562.06;5130293;27;20204;-69
2022/03/27 02:01:06;;;;;;;13.30;12.27;;;;;;;8.54;100.00;102552.50;5117130;28;20193;-69
2022/03/27 02:03:33;;;;;;;14.37;13.17;;;;;;;8.64;100.00;102553.31;5116828;27;20716;-69
2022/03/27 02:06:02;;;;;;;13.63;12.53;;;;;;;8.53;100.00;102556.00;5134785;27;20192;-69
2022/03/27 02:08:28;;;;;;;14.17;12.93;;;;;;;8.48;100.00;102552.53;5134950;27;20184;-69
2022/03/27 02:10:55;;;;;;;14.60;13.30;;;;;;;8.51;100.00;102552.53;5136188;27;20176;-69
2022/03/27 02:13:22;;;;;;;13.50;12.40;;;;;;;8.44;100.00;102557.78;5117052;27;20259;-70
2022/03/27 02:15:49;;;;;;;14.00;12.90;;;;;;;8.42;100.00;102547.31;5125198;27;20540;-69
2022/03/27 02:18:16;;;;;;;15.17;13.87;;;;;;;8.35;100.00;102555.13;5116507;28;20237;-69
2022/03/27 02:20:44;;;;;;;14.27;13.07;;;;;;;8.34;100.00;102554.25;5116921;28;20189;-70
2022/03/27 02:23:12;;;;;;;15.93;14.47;;;;;;;8.38;100.00;102544.72;5115941;28;20217;-69
2022/03/27 02:25:39;;;;;;;15.63;14.10;;;;;;;8.35;100.00;102550.81;5116533;28;20182;-69
2022/03/27 02:28:07;;;;;;;18.73;14.57;;;;;;;8.36;100.00;102549.97;5124552;27;20603;-69
2022/03/27 02:30:34;;;;;;;15.80;14.10;;;;;;;8.23;100.00;102550.81;5136748;27;20189;-69
2022/03/27 02:33:01;;;;;;;14.30;13.17;;;;;;;8.34;100.00;102548.19;5128688;27;20189;-69
2022/03/27 02:35:28;;;;;;;16.37;15.03;;;;;;;8.28;100.00;102556.88;5123399;27;20184;-69
2022/03/27 02:37:54;;;;;;;16.47;14.73;;;;;;;8.28;100.00;102554.28;5132065;27;20569;-69
2022/03/27 02:40:21;;;;;;;15.50;14.20;;;;;;;8.24;100.00;102552.56;5137367;27;20180;-70
2022/03/27 02:42:48;;;;;;;17.17;15.00;;;;;;;8.22;100.00;102555.19;5132286;27;20196;-69
2022/03/27 02:45:14;;;;;;;19.30;15.03;;;;;;;8.22;100.00;102554.31;5120088;27;20230;-69
2022/03/27 02:47:41;;;;;;;18.37;16.53;;;;;;;8.14;100.00;102550.81;5120554;27;20181;-69
2022/03/27 02:50:07;;;;;;;17.50;15.80;;;;;;;8.28;100.00;102555.13;5132426;27;20220;-69
2022/03/27 02:52:34;;;;;;;19.67;16.80;;;;;;;8.18;100.00;102557.78;5108021;28;20533;-69
2022/03/27 02:55:01;;;;;;;17.60;15.87;;;;;;;8.27;100.00;102552.53;5116201;27;20237;-69
2022/03/27 02:57:27;;;;;;;17.23;15.63;;;;;;;8.20;100.00;102550.81;5123784;27;20185;-69
2022/03/27 02:59:54;;;;;;;18.70;16.77;;;;;;;8.07;100.00;102549.97;5116279;27;20213;-69
2022/03/27 03:02:21;;;;;;;19.43;16.43;;;;;;;8.12;100.00;102557.78;5116360;27;20250;-69
2022/03/27 03:04:47;;;;;;;19.33;17.30;;;;;;;8.06;100.00;102560.41;5123229;27;20216;-69
2022/03/27 03:07:14;;;;;;;24.33;18.00;;;;;;;8.14;100.00;102553.44;5126397;27;20185;-69
2022/03/27 03:09:41;;;;;;;20.40;17.63;;;;;;;8.11;100.00;102556.06;5122760;27;20224;-69
2022/03/27 03:12:08;;;;;;;18.37;16.47;;;;;;;8.06;100.00;102547.38;5118626;27;20184;-69
2022/03/27 03:14:35;;;;;;;21.50;17.20;;;;;;;8.13;100.00;102549.09;5121724;27;20205;-69
2022/03/27 03:17:03;;;;;;;20.30;17.93;;;;;;;8.19;100.00;102556.91;5130476;27;20241;-69
2022/03/27 03:19:31;;;;;;;24.30;17.50;;;;;;;8.11;100.00;102561.28;5137124;27;20208;-69
2022/03/27 03:21:57;;;;;;;19.77;17.67;;;;;;;8.14;100.00;102556.03;5123722;27;20208;-69
2022/03/27 03:24:25;;;;;;;24.10;17.60;;;;;;;8.18;100.00;102560.41;5136697;27;20235;-69
2022/03/27 03:26:52;;;;;;;20.30;18.17;;;;;;;8.21;100.00;102558.63;5133741;27;20195;-69
2022/03/27 03:29:21;;;;;;;21.50;18.27;;;;;;;8.11;100.00;102562.16;5118787;27;20176;-69
2022/03/27 03:31:48;;;;;;;20.73;18.53;;;;;;;8.23;100.00;102550.81;5134275;27;20654;-69
2022/03/27 03:34:16;;;;;;;21.47;19.17;;;;;;;8.24;100.00;102549.94;5118998;27;20658;-69
2022/03/27 03:36:44;;;;;;;22.30;18.07;;;;;;;8.22;100.00;102562.13;5116947;27;20185;-69
2022/03/27 03:39:11;;;;;;;22.67;18.03;;;;;;;8.16;100.00;102563.00;5128707;27;20565;-69
2022/03/27 03:41:37;;;;;;;21.97;18.47;;;;;;;8.19;100.00;102565.59;5131482;27;20611;-69
2022/03/27 03:44:23;;;;;;;20.60;18.40;;;;;;;8.19;100.00;102567.34;5115406;28;20224;-69
2022/03/27 03:46:49;;;;;;;25.80;19.37;;;;;;;8.23;100.00;102567.34;5115433;27;20185;-69
2022/03/27 03:49:16;;;;;;;23.10;19.13;;;;;;;8.34;100.00;102567.31;5131869;27;20875;-69
2022/03/27 03:51:43;;;;;;;21.67;18.40;;;;;;;8.34;100.00;102566.44;5128599;27;20643;-69
2022/03/27 03:54:09;;;;;;;21.37;18.90;;;;;;;8.32;100.00;102563.84;5120585;27;20253;-69
2022/03/27 03:56:38;;;;;;;24.27;19.03;;;;;;;8.30;100.00;102567.34;5127746;27;20587;-69
2022/03/27 03:59:05;;;;;;;23.73;20.33;;;;;;;8.31;100.00;102564.72;5134400;27;20670;-69
2022/03/27 04:01:51;;;;;;;25.97;20.13;;;;;;;8.46;100.00;102569.06;5132057;27;20195;-69
2022/03/27 04:04:18;;;;;;;26.57;18.37;;;;;;;8.46;100.00;102566.47;5128237;27;20211;-69
2022/03/27 04:06:44;;;;;;;24.07;18.73;;;;;;;8.51;100.00;102562.09;5125529;27;20238;-68
2022/03/27 04:09:11;;;;;;;24.53;20.73;;;;;;;8.43;100.00;102563.84;5115321;28;20223;-68
2022/03/27 04:11:37;;;;;;;20.27;18.17;;;;;;;8.39;100.00;102557.78;5119008;27;20250;-68
2022/03/27 04:14:04;;;;;;;23.00;19.17;;;;;;;8.37;100.00;102556.91;5126539;27;20690;-68
2022/03/27 04:16:31;;;;;;;22.17;19.33;;;;;;;8.30;100.00;102557.78;5117035;27;20245;-68
2022/03/27 04:18:57;;;;;;;24.90;19.30;;;;;;;8.45;100.00;102556.91;5123115;27;20205;-68
2022/03/27 04:21:24;;;;;;;28.40;19.87;;;;;;;8.35;100.00;102556.03;5130940;27;20189;-69
2022/03/27 04:23:51;;;;;;;22.50;19.13;;;;;;;8.43;100.00;102556.00;5114241;28;20212;-69
2022/03/27 04:26:17;;;;;;;24.10;18.73;;;;;;;8.43;100.00;102564.75;5114625;28;20223;-69
2022/03/27 04:28:45;;;;;;;22.07;19.77;;;;;;;8.47;100.00;102556.00;5114639;27;20193;-69
2022/03/27 04:31:11;;;;;;;25.40;19.73;;;;;;;8.54;100.00;102547.28;5113569;28;20242;-69
2022/03/27 04:33:38;;;;;;;22.43;20.03;;;;;;;8.45;100.00;102557.75;5118257;27;20315;-69
2022/03/27 04:36:05;;;;;;;21.67;18.00;;;;;;;8.44;100.00;102553.41;5114243;28;20651;-69
2022/03/27 04:38:32;;;;;;;21.53;19.17;;;;;;;8.50;100.00;102558.63;5130186;27;20613;-69
2022/03/27 04:40:58;;;;;;;21.97;18.27;;;;;;;8.50;100.00;102560.34;5135002;27;20181;-69
2022/03/27 04:43:25;;;;;;;20.40;18.23;;;;;;;8.49;100.00;102561.22;5129170;27;20698;-69
2022/03/27 04:45:52;;;;;;;21.53;18.57;;;;;;;8.45;100.00;102562.13;5114396;28;20185;-69
2022/03/27 04:48:18;;;;;;;22.17;18.90;;;;;;;8.50;100.00;102562.94;5128847;27;20279;-69
2022/03/27 04:50:45;;;;;;;22.60;19.23;;;;;;;8.46;100.00;102564.72;5116017;27;20188;-69
2022/03/27 04:53:11;;;;;;;22.80;20.50;;;;;;;8.44;100.00;102576.91;5119180;27;20213;-69
2022/03/27 04:55:38;;;;;;;26.60;18.37;;;;;;;8.48;100.00;102577.75;5114235;28;20634;-69
2022/03/27 04:58:07;;;;;;;27.13;19.43;;;;;;;8.47;100.00;102569.06;5127627;27;20189;-69
2022/03/27 05:00:34;;;;;;;21.90;17.93;;;;;;;8.42;100.00;102583.84;5124509;27;20245;-69
2022/03/27 05:03:01;;;;;;;20.90;18.60;;;;;;;8.55;100.00;102580.34;5128838;27;20742;-69
2022/03/27 05:05:27;;;;;;;24.13;18.47;;;;;;;8.46;100.00;102580.38;5114931;28;20199;-69
2022/03/27 05:07:54;;;;;;;25.57;19.47;;;;;;;8.46;100.00;102584.72;5119876;27;20649;-69
2022/03/27 05:10:20;;;;;;;22.20;19.03;;;;;;;8.50;100.00;102586.44;5135068;27;20507;-69
2022/03/27 05:12:47;;;;;;;24.23;19.87;;;;;;;8.61;100.00;102589.03;5132690;27;20192;-69
2022/03/27 05:15:13;;;;;;;22.73;19.73;;;;;;;8.43;100.00;102593.44;5134707;27;20181;-69
2022/03/27 05:17:54;;;;;;;21.17;18.77;;;;;;;8.44;100.00;102591.72;5120838;27;20698;-69
2022/03/27 05:20:22;;;;;;;22.10;19.60;;;;;;;8.44;100.00;102583.88;5114113;28;20254;-69
2022/03/27 05:22:49;;;;;;;20.33;18.33;;;;;;;8.42;100.00;102593.44;5122074;27;20180;-69
2022/03/27 05:25:16;;;;;;;22.90;18.60;;;;;;;8.37;100.00;102588.25;5114088;28;20230;-69
2022/03/27 05:27:50;;;;;;;21.60;19.33;;;;;;;8.33;100.00;102596.91;5124195;27;20196;-69
2022/03/27 05:30:21;;;;;;;21.40;18.60;;;;;;;8.24;100.00;102589.97;5132687;27;20224;-69
2022/03/27 05:32:49;;;;;;;25.03;20.20;;;;;;;8.10;100.00;102591.72;5122890;27;20184;-69
2022/03/27 05:35:17;;;;;;;28.43;20.53;;;;;;;8.17;100.00;102593.44;5113458;28;20560;-69
2022/03/27 05:37:45;;;;;;;26.43;20.10;;;;;;;8.19;100.00;102593.44;5114034;28;20193;-69
2022/03/27 05:40:14;;;;;;;22.17;19.37;;;;;;;8.17;100.00;102595.19;5113554;28;20242;-69
2022/03/27 05:42:42;;;;;;;24.50;19.73;;;;;;;8.00;100.00;102601.31;5123590;28;20222;-69
2022/03/27 05:45:09;;;;;;;20.37;18.17;;;;;;;8.04;100.00;102596.06;5117219;28;20269;-69
2022/03/27 05:47:41;;;;;;;22.47;19.67;;;;;;;8.09;100.00;102591.72;5124073;28;20187;-69
2022/03/27 05:50:12;;;;;;;27.33;19.57;;;;;;;8.13;100.00;102591.69;5113817;28;20219;-69
2022/03/27 05:52:41;;;;;;;20.30;18.00;;;;;;;8.11;100.00;102592.59;5124409;28;20661;-69
2022/03/27 05:55:08;;;;;;;22.67;18.77;;;;;;;8.22;100.00;102591.72;5114174;28;20266;-69
2022/03/27 05:57:35;;;;;;;23.13;18.93;;;;;;;8.13;100.00;102596.91;5113286;28;20181;-69
2022/03/27 06:00:05;;;;;;;20.07;17.97;;;;;;;8.08;100.00;102592.59;5112632;28;20633;-69
2022/03/27 06:02:34;;;;;;;25.00;18.33;;;;;;;7.96;100.00;102599.53;5122033;28;20241;-69
2022/03/27 06:05:01;;;;;;;21.00;18.60;;;;;;;8.01;100.00;102596.94;5127832;28;20205;-69
2022/03/27 06:07:27;;;;;;;21.93;17.53;;;;;;;8.03;100.00;102607.38;5112992;28;20201;-70
2022/03/27 06:09:54;;;;;;;21.00;17.93;;;;;;;7.87;100.00;102610.00;5113292;28;20245;-69
2022/03/27 06:12:20;;;;;;;18.23;16.43;;;;;;;7.93;100.00;102615.22;5112554;28;20593;-69
2022/03/27 06:14:48;;;;;;;18.93;16.93;;;;;;;7.81;100.00;102615.19;5113266;28;20205;-69
2022/03/27 06:17:14;;;;;;;18.67;16.73;;;;;;;7.77;100.00;102616.03;5112189;28;20602;-69
2022/03/27 06:19:41;;;;;;;21.47;17.27;;;;;;;7.91;100.00;102614.31;5113398;28;20732;-68
2022/03/27 06:22:09;;;;;;;17.10;15.43;;;;;;;7.87;100.00;102615.19;5096485;28;20265;-69
2022/03/27 06:24:35;;;;;;;25.37;16.70;;;;;;;7.93;100.00;102625.66;5122519;27;20210;-69
2022/03/27 06:27:02;;;;;;;20.07;17.23;;;;;;;7.90;100.00;102624.75;5120093;27;20564;-69
2022/03/27 06:29:28;;;;;;;24.60;16.87;;;;;;;7.81;100.00;102624.75;5135391;27;20599;-69
2022/03/27 06:31:54;;;;;;;19.33;17.40;;;;;;;8.02;100.00;102618.69;5120523;27;20238;-69
2022/03/27 06:34:21;;;;;;;17.30;15.50;;;;;;;8.05;100.00;102619.53;5133391;27;20218;-68
2022/03/27 06:36:47;;;;;;;20.90;17.73;;;;;;;8.01;100.00;102617.81;5115912;28;20184;-69
2022/03/27 06:39:15;;;;;;;19.60;16.47;;;;;;;7.95;100.00;102629.13;5116394;28;20202;-69
2022/03/27 06:41:41;;;;;;;17.93;16.07;;;;;;;7.94;100.00;102632.59;5115352;28;20268;-69
2022/03/27 06:44:08;;;;;;;19.23;16.53;;;;;;;8.00;100.00;102630.00;5123235;27;20238;-69
2022/03/27 06:46:35;;;;;;;20.50;17.37;;;;;;;8.04;100.00;102629.97;5117825;27;20557;-68
2022/03/27 06:49:01;;;;;;;18.83;16.83;;;;;;;8.00;100.00;102627.38;5119113;27;20655;-69
2022/03/27 06:51:28;;;;;;;18.63;16.40;;;;;;;8.18;100.00;102625.63;5134858;27;20257;-69
2022/03/27 06:53:54;;;;;;;19.77;16.90;;;;;;;8.13;100.00;102627.34;5135597;27;20627;-70
2022/03/27 06:56:21;;;;;;;20.27;17.57;;;;;;;8.26;100.00;102631.72;5128113;27;20257;-70
2022/03/27 06:58:47;;;;;;;18.00;16.33;;;;;;;8.29;100.00;102631.72;5115852;28;20197;-69
2022/03/27 07:04:00;;;;;;;17.97;16.23;;;;;;;8.23;100.00;102629.97;5079934;28;20233;-69
2022/03/27 07:06:27;;;;;;;19.10;17.13;;;;;;;8.23;100.00;102631.72;5116149;27;20193;-69
2022/03/27 07:08:53;;;;;;;18.53;16.83;;;;;;;8.19;100.00;102632.59;5136825;27;20193;-69
2022/03/27 07:11:20;;;;;;;19.13;17.20;;;;;;;8.16;100.00;102633.47;5130842;27;20666;-69
2022/03/27 07:13:46;;;;;;;18.83;16.93;;;;;;;8.23;100.00;102629.13;5129483;27;20209;-69
2022/03/27 07:16:14;;;;;;;19.03;16.80;;;;;;;8.18;100.00;102628.25;5118516;27;20189;-69
2022/03/27 07:18:40;;;;;;;17.70;15.87;;;;;;;8.34;100.00;102627.34;5124844;27;20187;-69
2022/03/27 07:21:07;;;;;;;19.10;17.00;;;;;;;8.37;100.00;102632.63;5119466;27;20193;-69
2022/03/27 07:23:33;;;;;;;18.53;16.77;;;;;;;8.31;100.00;102622.13;5127815;27;20271;-69
2022/03/27 07:26:00;;;;;;;17.50;15.80;;;;;;;8.28;100.00;102622.13;5122943;27;20189;-69
2022/03/27 07:28:30;;;;;;;18.93;16.07;;;;;;;8.31;100.00;102623.88;5126675;27;20192;-69
2022/03/27 07:30:58;;;;;;;20.83;17.20;;;;;;;8.28;100.00;102623.00;5135498;27;20180;-69
2022/03/27 07:33:27;;;;;;;21.37;16.90;;;;;;;8.43;100.00;102619.56;5119163;27;20205;-69
2022/03/27 07:35:55;;;;;;;19.13;17.10;;;;;;;8.34;100.00;102622.13;5115061;28;20239;-69
2022/03/27 07:38:22;;;;;;;22.50;17.63;;;;;;;8.49;99.76;102627.34;5132355;27;20185;-69
2022/03/27 07:40:48;;;;;;;24.00;17.87;;;;;;;8.46;99.50;102626.50;5126852;27;20205;-69
2022/03/27 07:43:15;;;;;;;18.27;16.27;;;;;;;8.48;100.00;102630.84;5117770;27;20266;-69
2022/03/27 07:45:41;;;;;;;18.97;16.57;;;;;;;8.48;100.00;102630.84;5117724;27;20604;-69
2022/03/27 07:48:08;;;;;;;19.80;17.70;;;;;;;8.41;100.00;102626.50;5128614;27;20201;-69
2022/03/27 07:50:34;;;;;;;23.40;18.00;;;;;;;8.60;98.79;102629.09;5125529;27;20185;-69
2022/03/27 07:53:02;;;;;;;22.57;18.43;;;;;;;8.68;98.28;102625.56;5123820;27;20196;-70
2022/03/27 07:55:30;;;;;;;25.17;18.80;;;;;;;8.69;97.97;102624.69;5126271;27;20205;-69
2022/03/27 07:57:57;;;;;;;24.23;17.97;;;;;;;8.69;97.76;102629.91;5132290;27;20237;-69
2022/03/27 08:00:24;;;;;;;20.27;17.77;;;;;;;8.78;96.64;102629.88;5128675;27;20238;-70
2022/03/27 08:02:51;;;;;;;19.87;17.67;;;;;;;8.91;95.40;102624.63;5132629;27;20184;-69
2022/03/27 08:05:18;;;;;;;24.27;18.93;;;;;;;8.92;96.34;102632.44;5117356;27;20189;-69
2022/03/27 08:07:45;;;;;;;21.67;17.23;;;;;;;9.03;95.51;102637.66;5116192;27;20731;-69
2022/03/27 08:10:14;;;;;;;18.53;16.57;;;;;;;9.06;94.34;102629.78;5120897;27;20207;-69
2022/03/27 08:12:40;;;;;;;22.67;16.97;;;;;;;9.23;94.09;102634.97;5118112;27;20719;-69
2022/03/27 08:15:07;;;;;;;22.17;18.73;;;;;;;9.11;94.49;102643.72;5134333;27;20208;-70
2022/03/27 08:17:34;;;;;;;19.97;17.97;;;;;;;9.14;94.33;102637.59;5114918;28;20193;-69
2022/03/27 08:20:02;;;;;;;24.13;18.37;;;;;;;9.27;93.30;102628.81;5114829;28;20202;-69
2022/03/27 08:22:28;;;;;;;21.07;18.23;;;;;;;9.19;94.23;102631.47;5114341;28;20206;-69
2022/03/27 08:24:55;;;;;;;19.13;16.97;;;;;;;9.41;93.75;102621.78;5112352;28;20212;-69
2022/03/27 08:27:22;;;;;;;18.93;16.97;;;;;;;9.43;92.70;102630.50;5114595;28;20182;-69
2022/03/27 08:29:48;;;;;;;20.67;17.07;;;;;;;9.38;92.94;102632.25;5114393;27;20651;-69
2022/03/27 08:32:17;;;;;;;21.17;18.00;;;;;;;9.46;93.09;102633.09;5122060;27;20603;-69
2022/03/27 08:34:45;;;;;;;19.73;17.83;;;;;;;9.44;91.84;102633.97;5113269;28;20213;-69
2022/03/27 08:37:14;;;;;;;24.10;18.83;;;;;;;9.39;92.81;102636.63;5113376;28;20197;-69
2022/03/27 08:39:41;;;;;;;21.50;17.13;;;;;;;9.43;92.70;102645.28;5113997;28;20269;-69
2022/03/27 08:42:08;;;;;;;21.50;18.27;;;;;;;9.50;92.65;102644.38;5114399;28;20554;-69
2022/03/27 08:44:37;;;;;;;22.10;18.23;;;;;;;9.48;91.45;102639.16;5117652;27;20244;-69
2022/03/27 08:47:16;;;;;;;22.60;18.87;;;;;;;9.51;91.74;102648.75;5119527;27;20651;-69
2022/03/27 08:49:57;;;;;;;23.33;17.83;;;;;;;9.62;91.12;102633.84;5130794;27;20213;-69
2022/03/27 08:52:41;;;;;;;23.00;18.37;;;;;;;9.79;90.94;102639.00;5134877;27;20169;-69
2022/03/27 08:55:16;;;;;;;20.97;17.93;;;;;;;9.92;90.01;102638.00;5114838;27;20226;-69
2022/03/27 08:57:56;;;;;;;21.00;16.90;;;;;;;10.02;90.30;102636.19;5114502;28;20181;-69
2022/03/27 09:00:29;;;;;;;23.73;18.17;;;;;;;10.00;89.41;102635.31;5114002;27;20203;-69
2022/03/27 09:02:58;;;;;;;21.90;17.53;;;;;;;10.10;89.11;102631.75;5124631;27;20247;-69
2022/03/27 09:05:25;;;;;;;20.07;17.80;;;;;;;10.08;88.88;102634.41;5113834;28;20262;-70
2022/03/27 09:07:54;;;;;;;20.07;17.97;;;;;;;10.20;88.86;102628.16;5122245;27;20570;-69
2022/03/27 09:10:22;;;;;;;19.80;17.27;;;;;;;10.34;87.92;102628.06;5125650;27;20199;-70
2022/03/27 09:12:51;;;;;;;18.07;16.23;;;;;;;10.42;87.32;102627.09;5124256;27;20195;-69
2022/03/27 09:15:19;;;;;;;18.33;16.50;;;;;;;10.65;88.42;102631.28;5130430;27;20198;-69
2022/03/27 09:18:08;;;;;;;20.00;17.83;;;;;;;10.87;87.36;102631.91;5128472;27;20199;-70
2022/03/27 09:20:44;;;;;;;18.37;16.70;;;;;;;11.17;87.70;102631.50;5123375;27;20200;-69
2022/03/27 09:23:22;;;;;;;22.20;18.40;;;;;;;11.65;86.30;102629.09;5119503;27;20236;-70
2022/03/27 09:25:52;;;;;;;19.03;17.10;;;;;;;11.95;82.45;102629.53;5117566;27;20188;-69
2022/03/27 09:28:36;;;;;;;19.53;16.90;;;;;;;11.89;82.06;102624.38;5117088;28;20222;-69
2022/03/27 09:31:19;;;;;;;25.13;17.70;;;;;;;12.00;82.01;102617.19;5115988;28;20570;-70
2022/03/27 09:33:51;;;;;;;18.23;16.07;;;;;;;12.17;80.26;102625.66;5134531;27;20227;-69
2022/03/27 09:36:42;;;;;;;20.53;17.50;;;;;;;12.31;81.40;102631.53;5134301;28;20195;-69
2022/03/27 09:39:09;;;;;;;17.83;15.93;;;;;;;12.27;80.04;102627.22;5108581;28;20269;-69
2022/03/27 09:41:44;;;;;;;18.27;16.37;;;;;;;12.30;80.65;102621.94;5113859;28;20190;-69
2022/03/27 09:44:16;;;;;;;18.97;16.93;;;;;;;12.42;80.79;102626.06;5122175;28;20221;-69
2022/03/27 09:46:47;;;;;;;18.67;16.80;;;;;;;12.30;79.69;102623.69;5130084;28;20193;-70
2022/03/27 09:49:20;;;;;;;18.37;16.53;;;;;;;12.45;79.14;102627.81;5115435;28;20185;-70
2022/03/27 09:51:58;;;;;;;18.00;15.83;;;;;;;12.63;77.69;102623.03;5120193;28;20557;-70
2022/03/27 09:54:25;;;;;;;21.83;16.70;;;;;;;12.76;78.01;102613.16;5127981;28;20212;-70
2022/03/27 09:56:52;;;;;;;18.90;16.23;;;;;;;12.76;77.80;102614.94;5121276;28;20609;-70
2022/03/27 09:59:31;;;;;;;17.00;15.33;;;;;;;12.98;77.62;102610.97;5116534;28;20189;-70
2022/03/27 10:02:22;;;;;;;20.17;16.50;;;;;;;13.15;78.62;102613.25;5123675;27;20192;-70
2022/03/27 10:04:53;;;;;;;20.17;16.80;;;;;;;13.30;76.40;102609.44;5117175;28;20262;-70
2022/03/27 10:07:22;;;;;;;17.20;15.50;;;;;;;13.33;76.05;102604.97;5124944;27;20191;-70
2022/03/27 10:09:49;;;;;;;18.00;16.33;;;;;;;13.04;76.85;102609.97;5128774;27;20177;-70
2022/03/27 10:12:16;;;;;;;20.37;16.90;;;;;;;13.18;76.94;102607.91;5135687;27;20188;-70
2022/03/27 10:14:47;;;;;;;16.33;14.63;;;;;;;13.37;75.06;102601.38;5137703;27;20217;-70
2022/03/27 10:17:15;;;;;;;16.67;14.97;;;;;;;13.47;74.66;102602.88;5138305;27;20234;-69
2022/03/27 10:19:49;;;;;;;20.93;16.33;;;;;;;13.57;75.13;102592.13;5122357;27;20255;-70
2022/03/27 10:22:20;;;;;;;17.17;15.47;;;;;;;13.67;73.56;102591.03;5134438;27;20683;-70
2022/03/27 10:24:54;;;;;;;17.67;15.23;;;;;;;13.97;73.78;102589.41;5124132;27;20210;-70
2022/03/27 10:27:24;;;;;;;16.83;15.13;;;;;;;13.88;72.06;102587.88;5122226;27;20203;-70
2022/03/27 10:29:52;;;;;;;17.97;16.03;;;;;;;13.85;74.78;102579.19;5121414;27;20226;-70
2022/03/27 10:32:20;;;;;;;17.47;15.60;;;;;;;14.15;73.32;102575.78;5136945;27;20189;-70
2022/03/27 10:35:17;;;;;;;17.60;15.80;;;;;;;14.26;73.60;102572.84;5137488;27;20261;-70
2022/03/27 10:38:16;;;;;;;18.67;16.03;;;;;;;14.31;71.00;102570.97;5119319;27;20193;-70
2022/03/27 10:41:08;;;;;;;15.53;13.97;;;;;;;14.13;71.67;102568.78;5116712;27;20258;-70
2022/03/27 10:43:53;;;;;;;16.57;13.50;;;;;;;14.16;71.03;102566.09;5135847;27;20232;-70
2022/03/27 10:46:25;;;;;;;17.37;14.27;;;;;;;14.42;71.25;102560.97;5137380;27;20161;-70
2022/03/27 10:49:08;;;;;;;16.57;14.80;;;;;;;14.46;70.23;102557.38;5118241;27;20193;-70
2022/03/27 10:51:38;;;;;;;19.73;14.67;;;;;;;14.57;70.01;102563.22;5117486;27;20181;-70
2022/03/27 10:54:07;;;;;;;15.50;13.90;;;;;;;14.61;70.01;102556.09;5116280;27;20224;-70
2022/03/27 10:56:37;;;;;;;15.57;14.10;;;;;;;14.90;70.94;102552.59;5116503;28;20193;-70
2022/03/27 10:59:12;;;;;;;15.50;13.90;;;;;;;15.06;69.99;102547.72;5125405;27;20557;-70
2022/03/27 11:01:42;;;;;;;15.23;13.73;;;;;;;15.16;68.55;102554.44;5116335;27;20193;-70
2022/03/27 11:04:10;;;;;;;15.53;13.67;;;;;;;15.03;71.04;102546.03;5118040;27;20216;-70
2022/03/27 11:06:39;;;;;;;20.93;13.63;;;;;;;15.30;68.59;102554.03;5137183;27;20552;-70
2022/03/27 11:09:12;;;;;;;15.90;13.80;;;;;;;15.36;67.44;102545.91;5134932;27;20196;-70
2022/03/27 11:11:39;;;;;;;14.10;12.70;;;;;;;15.44;67.69;102549.16;5117269;27;20189;-71
2022/03/27 11:14:07;;;;;;;17.67;12.93;;;;;;;15.50;65.85;102540.16;5131672;27;20743;-70
2022/03/27 11:16:54;;;;;;;14.60;13.10;;;;;;;15.52;65.51;102536.56;5136055;27;20586;-71
2022/03/27 11:19:40;;;;;;;13.30;11.97;;;;;;;15.44;65.19;102538.59;5123553;27;20192;-70
2022/03/27 11:22:44;;;;;;;14.20;12.90;;;;;;;15.40;65.71;102542.25;5116567;28;20603;-70
2022/03/27 11:25:26;;;;;;;13.30;12.07;;;;;;;15.44;66.22;102533.31;5123368;27;20624;-70
2022/03/27 11:27:55;;;;;;;20.20;12.87;;;;;;;15.79;64.25;102528.66;5122302;27;20593;-70